EXS39JW LGRP-EGPH
Flight info
| Callsign | EXS39JW |
|---|---|
| Flight time | 4h 32m |
| Altitude | 32000 |
| Route | VANES M601 GILOS UM601 ADESO UN133 RIGRO DCT AMISI DCT DISOR DCT LONTA UL608 DOLEV DCT PETOV/N0436F340 DCT VAMET DCT NEMAL DCT SIMBA DCT KEMES DCT GASKA DCT MAPOX DCT BIGGE DCT TENLI DCT GODOS DCT AGPED |
| Aircraft | B738/M-SDE2E3FGHIRWXY/LB1 |
Departure
| Time | 2026-05-05 10:36 |
|---|---|
| Airport | Rhodes International Airport "Diagoras" (LGRP) |
Arrival
| Time | 2026-05-05 15:08 |
|---|---|
| Airport | Edinburgh Airport (EGPH) |
| Time | Latitude | Longitude | Altitude | Speed | Heading |
|---|---|---|---|---|---|
| 2026-05-05 10:13 | 36.40326 | 28.08980 | 27 ft | 0 kts | 160° |
| 2026-05-05 10:28 | 36.40335 | 28.08976 | 27 ft | 4 kts | 160° |
| 2026-05-05 10:28 | 36.40360 | 28.08965 | 27 ft | 3 kts | 160° |
| 2026-05-05 10:28 | 36.40381 | 28.08953 | 27 ft | 4 kts | 140° |
| 2026-05-05 10:28 | 36.40394 | 28.08928 | 27 ft | 4 kts | 99° |
| 2026-05-05 10:29 | 36.40396 | 28.08906 | 27 ft | 1 kts | 89° |
| 2026-05-05 10:29 | 36.40396 | 28.08902 | 27 ft | 0 kts | 89° |
| 2026-05-05 10:31 | 36.40396 | 28.08903 | 27 ft | 1 kts | 89° |
| 2026-05-05 10:31 | 36.40396 | 28.08930 | 27 ft | 7 kts | 89° |
| 2026-05-05 10:31 | 36.40402 | 28.09010 | 27 ft | 10 kts | 75° |
| 2026-05-05 10:31 | 36.40426 | 28.09093 | 27 ft | 10 kts | 70° |
| 2026-05-05 10:32 | 36.40450 | 28.09175 | 27 ft | 10 kts | 70° |
| 2026-05-05 10:32 | 36.40474 | 28.09255 | 27 ft | 10 kts | 70° |
| 2026-05-05 10:32 | 36.40500 | 28.09332 | 27 ft | 10 kts | 54° |
| 2026-05-05 10:32 | 36.40551 | 28.09383 | 27 ft | 9 kts | 34° |
| 2026-05-05 10:33 | 36.40596 | 28.09445 | 27 ft | 11 kts | 65° |
| 2026-05-05 10:33 | 36.40627 | 28.09551 | 27 ft | 14 kts | 70° |
| 2026-05-05 10:33 | 36.40661 | 28.09664 | 27 ft | 15 kts | 70° |
| 2026-05-05 10:33 | 36.40703 | 28.09805 | 27 ft | 20 kts | 70° |
| 2026-05-05 10:34 | 36.40751 | 28.09968 | 27 ft | 20 kts | 70° |
| 2026-05-05 10:34 | 36.40798 | 28.10126 | 27 ft | 19 kts | 70° |
| 2026-05-05 10:34 | 36.40843 | 28.10279 | 27 ft | 19 kts | 70° |
| 2026-05-05 10:34 | 36.40893 | 28.10423 | 27 ft | 18 kts | 41° |
| 2026-05-05 10:35 | 36.40993 | 28.10371 | 26 ft | 17 kts | 298° |
| 2026-05-05 10:35 | 36.41018 | 28.10253 | 27 ft | 10 kts | 250° |
| 2026-05-05 10:35 | 36.40999 | 28.10190 | 27 ft | 16 kts | 249° |
| 2026-05-05 10:35 | 36.40879 | 28.09778 | 27 ft | 85 kts | 250° |
| 2026-05-05 10:36 | 36.40603 | 28.08844 | 28 ft | 143 kts | 250° |
| 2026-05-05 10:36 | 36.40235 | 28.07533 | 337 ft | 169 kts | 254° |
| 2026-05-05 10:36 | 36.39905 | 28.06160 | 1217 ft | 166 kts | 268° |
| 2026-05-05 10:36 | 36.39826 | 28.04693 | 1936 ft | 175 kts | 272° |
| 2026-05-05 10:37 | 36.39720 | 28.03078 | 2238 ft | 200 kts | 270° |
| 2026-05-05 10:37 | 36.39578 | 28.01278 | 2497 ft | 218 kts | 268° |
| 2026-05-05 10:37 | 36.39421 | 27.99341 | 2877 ft | 229 kts | 268° |
| 2026-05-05 10:37 | 36.39259 | 27.97340 | 3292 ft | 241 kts | 268° |
| 2026-05-05 10:38 | 36.39090 | 27.95206 | 3706 ft | 255 kts | 268° |
| 2026-05-05 10:38 | 36.38915 | 27.92983 | 4396 ft | 261 kts | 269° |
| 2026-05-05 10:38 | 36.38737 | 27.90712 | 5088 ft | 268 kts | 268° |
| 2026-05-05 10:38 | 36.38556 | 27.88392 | 5841 ft | 272 kts | 268° |
| 2026-05-05 10:39 | 36.38374 | 27.86037 | 6575 ft | 276 kts | 269° |
| 2026-05-05 10:39 | 36.38330 | 27.83660 | 7288 ft | 276 kts | 275° |
| 2026-05-05 10:39 | 36.38377 | 27.81271 | 8051 ft | 278 kts | 275° |
| 2026-05-05 10:39 | 36.38424 | 27.78859 | 8738 ft | 282 kts | 275° |
| 2026-05-05 10:40 | 36.38461 | 27.76412 | 9475 ft | 285 kts | 275° |
| 2026-05-05 10:40 | 36.38491 | 27.73940 | 10153 ft | 288 kts | 275° |
| 2026-05-05 10:40 | 36.38618 | 27.71402 | 10464 ft | 304 kts | 281° |
| 2026-05-05 10:40 | 36.38938 | 27.68722 | 10638 ft | 324 kts | 283° |
| 2026-05-05 10:41 | 36.39330 | 27.65879 | 10812 ft | 344 kts | 283° |
| 2026-05-05 10:41 | 36.39742 | 27.62899 | 11209 ft | 355 kts | 283° |
| 2026-05-05 10:41 | 36.40150 | 27.59858 | 11874 ft | 357 kts | 282° |
| 2026-05-05 10:41 | 36.40547 | 27.56816 | 12597 ft | 358 kts | 282° |
| 2026-05-05 10:42 | 36.41331 | 27.50635 | 13837 ft | 366 kts | 282° |
| 2026-05-05 10:42 | 36.41717 | 27.47542 | 14406 ft | 368 kts | 282° |
| 2026-05-05 10:42 | 36.42107 | 27.44400 | 15059 ft | 369 kts | 281° |
| 2026-05-05 10:43 | 36.42497 | 27.41247 | 15666 ft | 371 kts | 281° |
| 2026-05-05 10:43 | 36.42889 | 27.38074 | 16236 ft | 373 kts | 281° |
| 2026-05-05 10:43 | 36.43283 | 27.34872 | 16799 ft | 376 kts | 281° |
| 2026-05-05 10:43 | 36.43677 | 27.31651 | 17356 ft | 378 kts | 281° |
| 2026-05-05 10:44 | 36.44075 | 27.28410 | 17952 ft | 380 kts | 280° |
| 2026-05-05 10:44 | 36.44474 | 27.25161 | 18522 ft | 382 kts | 280° |
| 2026-05-05 10:44 | 36.44873 | 27.21891 | 18999 ft | 384 kts | 280° |
| 2026-05-05 10:44 | 36.45274 | 27.18603 | 19465 ft | 386 kts | 280° |
| 2026-05-05 10:45 | 36.45676 | 27.15294 | 19959 ft | 388 kts | 279° |
| 2026-05-05 10:45 | 36.46080 | 27.11966 | 20394 ft | 392 kts | 279° |
| 2026-05-05 10:45 | 36.46487 | 27.08606 | 20820 ft | 395 kts | 279° |
| 2026-05-05 10:45 | 36.46895 | 27.05228 | 21276 ft | 397 kts | 279° |
| 2026-05-05 10:46 | 36.47317 | 27.01831 | 21716 ft | 399 kts | 279° |
| 2026-05-05 10:46 | 36.47748 | 26.98414 | 22144 ft | 402 kts | 279° |
| 2026-05-05 10:46 | 36.48181 | 26.94976 | 22573 ft | 404 kts | 279° |
| 2026-05-05 10:46 | 36.48613 | 26.91516 | 22979 ft | 407 kts | 279° |
| 2026-05-05 10:47 | 36.49041 | 26.88032 | 23388 ft | 409 kts | 279° |
| 2026-05-05 10:47 | 36.49454 | 26.84526 | 23767 ft | 412 kts | 279° |
| 2026-05-05 10:47 | 36.49862 | 26.80999 | 24117 ft | 413 kts | 279° |
| 2026-05-05 10:47 | 36.50270 | 26.77459 | 24488 ft | 414 kts | 279° |
| 2026-05-05 10:48 | 36.50679 | 26.73912 | 24858 ft | 416 kts | 279° |
| 2026-05-05 10:48 | 36.51090 | 26.70347 | 25181 ft | 417 kts | 279° |
| 2026-05-05 10:48 | 36.51503 | 26.66771 | 25503 ft | 419 kts | 279° |
| 2026-05-05 10:48 | 36.51918 | 26.63175 | 25825 ft | 421 kts | 279° |
| 2026-05-05 10:49 | 36.52332 | 26.59571 | 26155 ft | 422 kts | 279° |
| 2026-05-05 10:49 | 36.52869 | 26.55984 | 26440 ft | 423 kts | 289° |
| 2026-05-05 10:49 | 36.54171 | 26.52720 | 26715 ft | 423 kts | 305° |
| 2026-05-05 10:49 | 36.56103 | 26.49972 | 27138 ft | 422 kts | 317° |
| 2026-05-05 10:50 | 36.58504 | 26.47906 | 27623 ft | 421 kts | 331° |
| 2026-05-05 10:50 | 36.61133 | 26.46331 | 28166 ft | 417 kts | 333° |
| 2026-05-05 10:50 | 36.63733 | 26.44859 | 28595 ft | 416 kts | 334° |
| 2026-05-05 10:50 | 36.66369 | 26.43380 | 28986 ft | 415 kts | 334° |
| 2026-05-05 10:51 | 36.68993 | 26.41894 | 29419 ft | 413 kts | 333° |
| 2026-05-05 10:51 | 36.71595 | 26.40401 | 29911 ft | 410 kts | 333° |
| 2026-05-05 10:51 | 36.74172 | 26.38906 | 30343 ft | 407 kts | 333° |
| 2026-05-05 10:51 | 36.76732 | 26.37411 | 30691 ft | 406 kts | 333° |
| 2026-05-05 10:52 | 36.79284 | 26.35915 | 31009 ft | 405 kts | 333° |
| 2026-05-05 10:52 | 36.81825 | 26.34422 | 31363 ft | 403 kts | 333° |
| 2026-05-05 10:52 | 36.84350 | 26.32938 | 31721 ft | 400 kts | 333° |
| 2026-05-05 10:52 | 36.86856 | 26.31465 | 32029 ft | 399 kts | 333° |
| 2026-05-05 10:53 | 36.89377 | 26.29981 | 32066 ft | 403 kts | 333° |
| 2026-05-05 10:53 | 36.94461 | 26.26988 | 32082 ft | 404 kts | 333° |
| 2026-05-05 10:54 | 36.99495 | 26.24011 | 32085 ft | 397 kts | 333° |
| 2026-05-05 10:54 | 37.04452 | 26.20992 | 32099 ft | 396 kts | 333° |
| 2026-05-05 10:55 | 37.09405 | 26.17953 | 32098 ft | 396 kts | 333° |
| 2026-05-05 10:55 | 37.14356 | 26.14918 | 32094 ft | 396 kts | 333° |
| 2026-05-05 10:56 | 37.19309 | 26.11882 | 32095 ft | 396 kts | 333° |
| 2026-05-05 10:56 | 37.24264 | 26.08842 | 32102 ft | 396 kts | 333° |
| 2026-05-05 10:57 | 37.29220 | 26.05796 | 32095 ft | 396 kts | 333° |
| 2026-05-05 10:57 | 37.34175 | 26.02748 | 32097 ft | 397 kts | 333° |
| 2026-05-05 10:58 | 37.39131 | 25.99693 | 32098 ft | 397 kts | 333° |
| 2026-05-05 10:58 | 37.44053 | 25.96655 | 32097 ft | 397 kts | 333° |
| 2026-05-05 10:59 | 37.49006 | 25.93593 | 32097 ft | 397 kts | 333° |
| 2026-05-05 10:59 | 37.53959 | 25.90527 | 32101 ft | 397 kts | 333° |
| 2026-05-05 11:00 | 37.58902 | 25.87444 | 32098 ft | 396 kts | 330° |
| 2026-05-05 11:00 | 37.63549 | 25.83732 | 32097 ft | 395 kts | 326° |
| 2026-05-05 11:01 | 37.68138 | 25.79910 | 32102 ft | 395 kts | 326° |
| 2026-05-05 11:01 | 37.72728 | 25.76096 | 32101 ft | 395 kts | 326° |
| 2026-05-05 11:02 | 37.77318 | 25.72292 | 32099 ft | 395 kts | 326° |
| 2026-05-05 11:02 | 37.81912 | 25.68486 | 32097 ft | 394 kts | 326° |
| 2026-05-05 11:03 | 37.86500 | 25.64680 | 32096 ft | 394 kts | 326° |
| 2026-05-05 11:03 | 37.91087 | 25.60869 | 32097 ft | 394 kts | 326° |
| 2026-05-05 11:04 | 37.95670 | 25.57056 | 32097 ft | 394 kts | 326° |
| 2026-05-05 11:04 | 38.00252 | 25.53238 | 32098 ft | 394 kts | 326° |
| 2026-05-05 11:05 | 38.04829 | 25.49418 | 32098 ft | 394 kts | 326° |
| 2026-05-05 11:05 | 38.07118 | 25.47506 | 32092 ft | 394 kts | 326° |
| 2026-05-05 11:06 | 38.11003 | 25.44256 | 32100 ft | 394 kts | 326° |
| 2026-05-05 11:06 | 38.15572 | 25.40429 | 32093 ft | 393 kts | 326° |
| 2026-05-05 11:07 | 38.20137 | 25.36599 | 32098 ft | 393 kts | 326° |
| 2026-05-05 11:07 | 38.24669 | 25.32792 | 32094 ft | 393 kts | 326° |
| 2026-05-05 11:08 | 38.29229 | 25.28955 | 32092 ft | 393 kts | 326° |
| 2026-05-05 11:08 | 38.33784 | 25.25117 | 32094 ft | 392 kts | 326° |
| 2026-05-05 11:09 | 38.38332 | 25.21279 | 32093 ft | 392 kts | 326° |
| 2026-05-05 11:09 | 38.42878 | 25.17436 | 32090 ft | 392 kts | 326° |
| 2026-05-05 11:10 | 38.47422 | 25.13589 | 32090 ft | 392 kts | 326° |
| 2026-05-05 11:10 | 38.51194 | 25.10391 | 32091 ft | 392 kts | 326° |
| 2026-05-05 11:11 | 38.55730 | 25.06540 | 32089 ft | 391 kts | 326° |
| 2026-05-05 11:11 | 38.60261 | 25.02687 | 32091 ft | 391 kts | 326° |
| 2026-05-05 11:12 | 38.64790 | 24.98830 | 32090 ft | 391 kts | 326° |
| 2026-05-05 11:12 | 38.69317 | 24.94969 | 32087 ft | 391 kts | 326° |
| 2026-05-05 11:13 | 38.73840 | 24.91105 | 32087 ft | 391 kts | 326° |
| 2026-05-05 11:13 | 38.78358 | 24.87239 | 32089 ft | 391 kts | 326° |
| 2026-05-05 11:14 | 38.82874 | 24.83369 | 32090 ft | 390 kts | 326° |
| 2026-05-05 11:14 | 38.87408 | 24.79530 | 32086 ft | 390 kts | 327° |
| 2026-05-05 11:15 | 38.91984 | 24.75771 | 32088 ft | 390 kts | 327° |
| 2026-05-05 11:15 | 38.96562 | 24.72014 | 32088 ft | 390 kts | 327° |
| 2026-05-05 11:16 | 39.01132 | 24.68246 | 32083 ft | 390 kts | 327° |
| 2026-05-05 11:16 | 39.05695 | 24.64472 | 32082 ft | 390 kts | 327° |
| 2026-05-05 11:17 | 39.10261 | 24.60686 | 32085 ft | 391 kts | 327° |
| 2026-05-05 11:17 | 39.14828 | 24.56892 | 32081 ft | 391 kts | 327° |
| 2026-05-05 11:18 | 39.19395 | 24.53093 | 32080 ft | 391 kts | 327° |
| 2026-05-05 11:18 | 39.23931 | 24.49314 | 32077 ft | 391 kts | 327° |
| 2026-05-05 11:19 | 39.28496 | 24.45505 | 32084 ft | 391 kts | 327° |
| 2026-05-05 11:19 | 39.33065 | 24.41686 | 32083 ft | 391 kts | 327° |
| 2026-05-05 11:20 | 39.37631 | 24.37864 | 32076 ft | 391 kts | 327° |
| 2026-05-05 11:20 | 39.42198 | 24.34034 | 32077 ft | 391 kts | 327° |
| 2026-05-05 11:21 | 39.46764 | 24.30201 | 32080 ft | 391 kts | 327° |
| 2026-05-05 11:21 | 39.51329 | 24.26360 | 32075 ft | 391 kts | 327° |
| 2026-05-05 11:22 | 39.55892 | 24.22517 | 32080 ft | 391 kts | 327° |
| 2026-05-05 11:22 | 39.60454 | 24.18667 | 32076 ft | 391 kts | 327° |
| 2026-05-05 11:23 | 39.64878 | 24.14928 | 32077 ft | 391 kts | 327° |
| 2026-05-05 11:23 | 39.69439 | 24.11068 | 32080 ft | 391 kts | 327° |
| 2026-05-05 11:24 | 39.73999 | 24.07202 | 32072 ft | 391 kts | 327° |
| 2026-05-05 11:24 | 39.78560 | 24.03329 | 32075 ft | 392 kts | 327° |
| 2026-05-05 11:25 | 39.83120 | 23.99450 | 32072 ft | 392 kts | 327° |
| 2026-05-05 11:25 | 39.87678 | 23.95567 | 32070 ft | 392 kts | 327° |
| 2026-05-05 11:26 | 39.92236 | 23.91679 | 32068 ft | 392 kts | 327° |
| 2026-05-05 11:26 | 39.96789 | 23.87787 | 32073 ft | 392 kts | 327° |
| 2026-05-05 11:27 | 40.01345 | 23.83887 | 32068 ft | 392 kts | 327° |
| 2026-05-05 11:27 | 40.05868 | 23.80009 | 32069 ft | 392 kts | 327° |
| 2026-05-05 11:28 | 40.10426 | 23.76094 | 32057 ft | 392 kts | 327° |
| 2026-05-05 11:28 | 40.15015 | 23.72147 | 32063 ft | 392 kts | 327° |
| 2026-05-05 11:29 | 40.19569 | 23.68223 | 32061 ft | 392 kts | 327° |
| 2026-05-05 11:29 | 40.24090 | 23.64321 | 32065 ft | 392 kts | 327° |
| 2026-05-05 11:30 | 40.28675 | 23.60358 | 32060 ft | 392 kts | 327° |
| 2026-05-05 11:30 | 40.33197 | 23.56443 | 32058 ft | 393 kts | 327° |
| 2026-05-05 11:31 | 40.37730 | 23.52511 | 32054 ft | 393 kts | 327° |
| 2026-05-05 11:31 | 40.42286 | 23.48553 | 32057 ft | 393 kts | 327° |
| 2026-05-05 11:32 | 40.46875 | 23.44560 | 32050 ft | 393 kts | 327° |
| 2026-05-05 11:32 | 40.51407 | 23.40610 | 32047 ft | 394 kts | 327° |
| 2026-05-05 11:33 | 40.55968 | 23.36628 | 32040 ft | 393 kts | 327° |
| 2026-05-05 11:33 | 40.60519 | 23.32648 | 32043 ft | 392 kts | 327° |
| 2026-05-05 11:34 | 40.65061 | 23.28669 | 32050 ft | 392 kts | 327° |
| 2026-05-05 11:34 | 40.69601 | 23.24686 | 32039 ft | 392 kts | 327° |
| 2026-05-05 11:35 | 40.74127 | 23.20708 | 32046 ft | 391 kts | 327° |
| 2026-05-05 11:35 | 40.78657 | 23.16720 | 32043 ft | 392 kts | 327° |
| 2026-05-05 11:36 | 40.83190 | 23.12723 | 32042 ft | 392 kts | 326° |
| 2026-05-05 11:36 | 40.87730 | 23.08713 | 32035 ft | 393 kts | 326° |
| 2026-05-05 11:37 | 40.92272 | 23.04694 | 32042 ft | 393 kts | 326° |
| 2026-05-05 11:37 | 40.96818 | 23.00665 | 32043 ft | 394 kts | 326° |
| 2026-05-05 11:38 | 41.01369 | 22.96625 | 32040 ft | 394 kts | 326° |
| 2026-05-05 11:38 | 41.05923 | 22.92575 | 32039 ft | 394 kts | 326° |
| 2026-05-05 11:39 | 41.10476 | 22.88519 | 32044 ft | 394 kts | 326° |
| 2026-05-05 11:39 | 41.15025 | 22.84459 | 32053 ft | 394 kts | 326° |
| 2026-05-05 11:40 | 41.19577 | 22.80390 | 32054 ft | 395 kts | 326° |
| 2026-05-05 11:40 | 41.24106 | 22.76262 | 32043 ft | 395 kts | 322° |
| 2026-05-05 11:41 | 41.27998 | 22.71120 | 32068 ft | 395 kts | 313° |
| 2026-05-05 11:41 | 41.31676 | 22.65677 | 32052 ft | 396 kts | 313° |
| 2026-05-05 11:42 | 41.35362 | 22.60233 | 32056 ft | 396 kts | 313° |
| 2026-05-05 11:42 | 41.39058 | 22.54792 | 32061 ft | 396 kts | 313° |
| 2026-05-05 11:43 | 41.42730 | 22.49390 | 32066 ft | 396 kts | 313° |
| 2026-05-05 11:43 | 41.46424 | 22.43949 | 32064 ft | 396 kts | 313° |
| 2026-05-05 11:44 | 41.50118 | 22.38500 | 32080 ft | 396 kts | 313° |
| 2026-05-05 11:44 | 41.53810 | 22.33041 | 32076 ft | 396 kts | 313° |
| 2026-05-05 11:45 | 41.57500 | 22.27575 | 32074 ft | 396 kts | 313° |
| 2026-05-05 11:45 | 41.61187 | 22.22105 | 32071 ft | 396 kts | 313° |
| 2026-05-05 11:46 | 41.64874 | 22.16624 | 32077 ft | 396 kts | 313° |
| 2026-05-05 11:46 | 41.68560 | 22.11134 | 32068 ft | 397 kts | 313° |
| 2026-05-05 11:47 | 41.72246 | 22.05635 | 32075 ft | 397 kts | 313° |
| 2026-05-05 11:47 | 41.75929 | 22.00129 | 32074 ft | 397 kts | 313° |
| 2026-05-05 11:48 | 41.81423 | 21.91896 | 32076 ft | 397 kts | 312° |
| 2026-05-05 11:48 | 41.85098 | 21.86377 | 32078 ft | 397 kts | 312° |
| 2026-05-05 11:49 | 41.88773 | 21.80847 | 32087 ft | 397 kts | 312° |
| 2026-05-05 11:49 | 41.92449 | 21.75306 | 32079 ft | 398 kts | 312° |
| 2026-05-05 11:50 | 41.96133 | 21.69741 | 32070 ft | 399 kts | 312° |
| 2026-05-05 11:50 | 41.99818 | 21.64164 | 32081 ft | 399 kts | 312° |
| 2026-05-05 11:51 | 42.03501 | 21.58581 | 32086 ft | 399 kts | 312° |
| 2026-05-05 11:51 | 42.07185 | 21.52985 | 32087 ft | 400 kts | 311° |
| 2026-05-05 11:52 | 42.10870 | 21.47375 | 32083 ft | 400 kts | 311° |
| 2026-05-05 11:52 | 42.14556 | 21.41756 | 32089 ft | 400 kts | 312° |
| 2026-05-05 11:53 | 42.18215 | 21.36100 | 32082 ft | 400 kts | 311° |
| 2026-05-05 11:53 | 42.21811 | 21.30390 | 32087 ft | 399 kts | 310° |
| 2026-05-05 11:54 | 42.25397 | 21.24679 | 32089 ft | 399 kts | 310° |
| 2026-05-05 11:54 | 42.28979 | 21.18976 | 32091 ft | 398 kts | 310° |
| 2026-05-05 11:55 | 42.32557 | 21.13277 | 32091 ft | 398 kts | 310° |
| 2026-05-05 11:55 | 42.36134 | 21.07570 | 32095 ft | 398 kts | 310° |
| 2026-05-05 11:56 | 42.39709 | 21.01856 | 32091 ft | 398 kts | 310° |
| 2026-05-05 11:56 | 42.43283 | 20.96132 | 32090 ft | 398 kts | 310° |
| 2026-05-05 11:57 | 42.46833 | 20.90435 | 32089 ft | 398 kts | 310° |
| 2026-05-05 11:57 | 42.50401 | 20.84699 | 32085 ft | 398 kts | 310° |
| 2026-05-05 11:58 | 42.53961 | 20.78963 | 32083 ft | 398 kts | 310° |
| 2026-05-05 11:58 | 42.56943 | 20.74151 | 32083 ft | 397 kts | 310° |
| 2026-05-05 11:59 | 42.60497 | 20.68405 | 32077 ft | 397 kts | 310° |
| 2026-05-05 11:59 | 42.64046 | 20.62656 | 32076 ft | 397 kts | 310° |
| 2026-05-05 12:00 | 42.67480 | 20.57082 | 32076 ft | 397 kts | 309° |
| 2026-05-05 12:00 | 42.70998 | 20.51362 | 32074 ft | 397 kts | 309° |
| 2026-05-05 12:01 | 42.74535 | 20.45598 | 32076 ft | 397 kts | 309° |
| 2026-05-05 12:01 | 42.78065 | 20.39834 | 32081 ft | 396 kts | 309° |
| 2026-05-05 12:02 | 42.81586 | 20.34076 | 32076 ft | 396 kts | 309° |
| 2026-05-05 12:02 | 42.85396 | 20.28680 | 32082 ft | 397 kts | 318° |
| 2026-05-05 12:03 | 42.89632 | 20.23840 | 32069 ft | 398 kts | 319° |
| 2026-05-05 12:03 | 42.93885 | 20.18995 | 32071 ft | 399 kts | 319° |
| 2026-05-05 12:04 | 42.98129 | 20.14121 | 32070 ft | 399 kts | 318° |
| 2026-05-05 12:04 | 43.02370 | 20.09221 | 32069 ft | 400 kts | 318° |
| 2026-05-05 12:05 | 43.06614 | 20.04301 | 32060 ft | 400 kts | 318° |
| 2026-05-05 12:05 | 43.10863 | 19.99364 | 32058 ft | 401 kts | 318° |
| 2026-05-05 12:06 | 43.15112 | 19.94418 | 32055 ft | 401 kts | 318° |
| 2026-05-05 12:06 | 43.19361 | 19.89463 | 32054 ft | 401 kts | 318° |
| 2026-05-05 12:07 | 43.23612 | 19.84496 | 32045 ft | 402 kts | 318° |
| 2026-05-05 12:07 | 43.27869 | 19.79513 | 32043 ft | 403 kts | 318° |
| 2026-05-05 12:08 | 43.32135 | 19.74509 | 32046 ft | 404 kts | 318° |
| 2026-05-05 12:08 | 43.36410 | 19.69486 | 32047 ft | 404 kts | 318° |
| 2026-05-05 12:09 | 43.40682 | 19.64456 | 32040 ft | 404 kts | 317° |
| 2026-05-05 12:09 | 43.44951 | 19.59421 | 32044 ft | 404 kts | 317° |
| 2026-05-05 12:10 | 43.49214 | 19.54381 | 32032 ft | 404 kts | 317° |
| 2026-05-05 12:10 | 43.53479 | 19.49331 | 32032 ft | 404 kts | 317° |
| 2026-05-05 12:11 | 43.57741 | 19.44274 | 32031 ft | 405 kts | 317° |
| 2026-05-05 12:11 | 43.61982 | 19.39233 | 32032 ft | 405 kts | 317° |
| 2026-05-05 12:12 | 43.66253 | 19.34145 | 32029 ft | 406 kts | 317° |
| 2026-05-05 12:12 | 43.70524 | 19.29047 | 32028 ft | 406 kts | 317° |
| 2026-05-05 12:13 | 43.74794 | 19.23942 | 32029 ft | 406 kts | 317° |
| 2026-05-05 12:13 | 43.79059 | 19.18831 | 32033 ft | 405 kts | 317° |
| 2026-05-05 12:14 | 43.83317 | 19.13720 | 32025 ft | 406 kts | 317° |
| 2026-05-05 12:14 | 43.87584 | 19.08589 | 32019 ft | 406 kts | 317° |
| 2026-05-05 12:15 | 43.91849 | 19.03448 | 32015 ft | 407 kts | 317° |
| 2026-05-05 12:15 | 43.96118 | 18.98292 | 32017 ft | 407 kts | 317° |
| 2026-05-05 12:16 | 44.00389 | 18.93124 | 32021 ft | 407 kts | 317° |
| 2026-05-05 12:16 | 44.04660 | 18.87946 | 32016 ft | 408 kts | 317° |
| 2026-05-05 12:17 | 44.08931 | 18.82758 | 32016 ft | 407 kts | 317° |
| 2026-05-05 12:17 | 44.13197 | 18.77565 | 32016 ft | 407 kts | 317° |
| 2026-05-05 12:18 | 44.17463 | 18.72362 | 32007 ft | 408 kts | 317° |
| 2026-05-05 12:18 | 44.21736 | 18.67140 | 32000 ft | 409 kts | 317° |
| 2026-05-05 12:19 | 44.26011 | 18.61905 | 31992 ft | 409 kts | 317° |
| 2026-05-05 12:19 | 44.30287 | 18.56658 | 31998 ft | 409 kts | 317° |
| 2026-05-05 12:20 | 44.34565 | 18.51399 | 31991 ft | 410 kts | 317° |
| 2026-05-05 12:20 | 44.38843 | 18.46127 | 31988 ft | 410 kts | 316° |
| 2026-05-05 12:21 | 44.43119 | 18.40849 | 31999 ft | 410 kts | 316° |
| 2026-05-05 12:21 | 44.47390 | 18.35566 | 31984 ft | 410 kts | 316° |
| 2026-05-05 12:22 | 44.51657 | 18.30276 | 31990 ft | 410 kts | 316° |
| 2026-05-05 12:22 | 44.55894 | 18.25013 | 31990 ft | 410 kts | 316° |
| 2026-05-05 12:23 | 44.60164 | 18.19699 | 31983 ft | 411 kts | 316° |
| 2026-05-05 12:23 | 44.64437 | 18.14370 | 31979 ft | 411 kts | 316° |
| 2026-05-05 12:24 | 44.68716 | 18.09022 | 31974 ft | 412 kts | 316° |
| 2026-05-05 12:24 | 44.73001 | 18.03656 | 31975 ft | 413 kts | 316° |
| 2026-05-05 12:25 | 44.77284 | 17.98282 | 31977 ft | 413 kts | 316° |
| 2026-05-05 12:25 | 44.81572 | 17.92889 | 31983 ft | 413 kts | 316° |
| 2026-05-05 12:26 | 44.85859 | 17.87488 | 31974 ft | 414 kts | 316° |
| 2026-05-05 12:26 | 44.90149 | 17.82069 | 31971 ft | 414 kts | 316° |
| 2026-05-05 12:27 | 44.94441 | 17.76639 | 31973 ft | 414 kts | 316° |
| 2026-05-05 12:27 | 44.98732 | 17.71199 | 31972 ft | 414 kts | 316° |
| 2026-05-05 12:28 | 45.03017 | 17.65753 | 31976 ft | 414 kts | 315° |
| 2026-05-05 12:28 | 45.07299 | 17.60301 | 31968 ft | 414 kts | 315° |
| 2026-05-05 12:29 | 45.11576 | 17.54843 | 31973 ft | 414 kts | 315° |
| 2026-05-05 12:29 | 45.15850 | 17.49378 | 31963 ft | 414 kts | 315° |
| 2026-05-05 12:30 | 45.20118 | 17.43908 | 31968 ft | 414 kts | 315° |
| 2026-05-05 12:30 | 45.24385 | 17.38429 | 31978 ft | 414 kts | 315° |
| 2026-05-05 12:31 | 45.28648 | 17.32943 | 31967 ft | 414 kts | 315° |
| 2026-05-05 12:31 | 45.32911 | 17.27445 | 31973 ft | 414 kts | 315° |
| 2026-05-05 12:32 | 45.37172 | 17.21938 | 31980 ft | 414 kts | 315° |
| 2026-05-05 12:32 | 45.41437 | 17.16414 | 31983 ft | 415 kts | 315° |
| 2026-05-05 12:33 | 45.45703 | 17.10877 | 31972 ft | 416 kts | 314° |
| 2026-05-05 12:33 | 45.49978 | 17.05316 | 31984 ft | 417 kts | 314° |
| 2026-05-05 12:34 | 45.54263 | 16.99731 | 31979 ft | 418 kts | 314° |
| 2026-05-05 12:34 | 45.58551 | 16.94130 | 31983 ft | 418 kts | 314° |
| 2026-05-05 12:35 | 45.62821 | 16.88540 | 31978 ft | 419 kts | 314° |
| 2026-05-05 12:35 | 45.67121 | 16.82899 | 31987 ft | 420 kts | 314° |
| 2026-05-05 12:36 | 45.71425 | 16.77239 | 31983 ft | 420 kts | 314° |
| 2026-05-05 12:36 | 45.75755 | 16.71534 | 31982 ft | 420 kts | 314° |
| 2026-05-05 12:37 | 45.80023 | 16.65897 | 31983 ft | 420 kts | 314° |
| 2026-05-05 12:37 | 45.84317 | 16.60214 | 31981 ft | 420 kts | 314° |
| 2026-05-05 12:38 | 45.88610 | 16.54519 | 31988 ft | 420 kts | 314° |
| 2026-05-05 12:38 | 45.92905 | 16.48810 | 31985 ft | 421 kts | 314° |
| 2026-05-05 12:39 | 45.97200 | 16.43087 | 31987 ft | 422 kts | 314° |
| 2026-05-05 12:39 | 46.00805 | 16.38274 | 31990 ft | 423 kts | 314° |
| 2026-05-05 12:40 | 46.01698 | 16.37080 | 31988 ft | 423 kts | 314° |
| 2026-05-05 12:40 | 46.06011 | 16.31307 | 31991 ft | 424 kts | 314° |
| 2026-05-05 12:41 | 46.10328 | 16.25516 | 31991 ft | 425 kts | 314° |
| 2026-05-05 12:41 | 46.14649 | 16.19708 | 31986 ft | 425 kts | 313° |
| 2026-05-05 12:42 | 46.18980 | 16.13871 | 31987 ft | 426 kts | 313° |
| 2026-05-05 12:42 | 46.23316 | 16.08012 | 31982 ft | 427 kts | 313° |
| 2026-05-05 12:43 | 46.27659 | 16.02135 | 31972 ft | 428 kts | 313° |
| 2026-05-05 12:43 | 46.31988 | 15.96248 | 31961 ft | 426 kts | 313° |
| 2026-05-05 12:44 | 46.35504 | 15.91272 | 31973 ft | 425 kts | 311° |
| 2026-05-05 12:44 | 46.39696 | 15.85249 | 31958 ft | 424 kts | 311° |
| 2026-05-05 12:45 | 46.43886 | 15.79233 | 31968 ft | 423 kts | 312° |
| 2026-05-05 12:45 | 46.48068 | 15.73229 | 31972 ft | 423 kts | 312° |
| 2026-05-05 12:46 | 46.52256 | 15.67211 | 31966 ft | 424 kts | 312° |
| 2026-05-05 12:46 | 46.56449 | 15.61179 | 31977 ft | 424 kts | 311° |
| 2026-05-05 12:47 | 46.60644 | 15.55126 | 31965 ft | 426 kts | 311° |
| 2026-05-05 12:47 | 46.64850 | 15.49042 | 31946 ft | 427 kts | 311° |
| 2026-05-05 12:48 | 46.69060 | 15.42935 | 31937 ft | 428 kts | 311° |
| 2026-05-05 12:48 | 46.73281 | 15.36806 | 31903 ft | 429 kts | 311° |
| 2026-05-05 12:49 | 46.77501 | 15.30656 | 31900 ft | 429 kts | 311° |
| 2026-05-05 12:49 | 46.81639 | 15.24397 | 31893 ft | 428 kts | 310° |
| 2026-05-05 12:50 | 46.85701 | 15.18123 | 31895 ft | 428 kts | 310° |
| 2026-05-05 12:50 | 46.89787 | 15.11808 | 31901 ft | 427 kts | 310° |
| 2026-05-05 12:51 | 46.93870 | 15.05501 | 31888 ft | 426 kts | 310° |
| 2026-05-05 12:51 | 46.97933 | 14.99220 | 31915 ft | 424 kts | 310° |
| 2026-05-05 12:52 | 47.01981 | 14.92945 | 31911 ft | 424 kts | 310° |
| 2026-05-05 12:52 | 47.06025 | 14.86663 | 31909 ft | 424 kts | 310° |
| 2026-05-05 12:53 | 47.10071 | 14.80363 | 31911 ft | 424 kts | 309° |
| 2026-05-05 12:53 | 47.14116 | 14.74055 | 31921 ft | 425 kts | 309° |
| 2026-05-05 12:54 | 47.20205 | 14.64521 | 31918 ft | 428 kts | 309° |
| 2026-05-05 12:55 | 47.24285 | 14.58111 | 31918 ft | 431 kts | 309° |
| 2026-05-05 12:55 | 47.28390 | 14.51651 | 31911 ft | 432 kts | 309° |
| 2026-05-05 12:56 | 47.32501 | 14.45169 | 31907 ft | 433 kts | 309° |
| 2026-05-05 12:56 | 47.36580 | 14.38719 | 31878 ft | 433 kts | 309° |
| 2026-05-05 12:57 | 47.40668 | 14.32239 | 31870 ft | 431 kts | 309° |
| 2026-05-05 12:57 | 47.44739 | 14.25770 | 31845 ft | 429 kts | 309° |
| 2026-05-05 12:58 | 47.48787 | 14.19321 | 31829 ft | 427 kts | 309° |
| 2026-05-05 12:58 | 47.52813 | 14.12892 | 31832 ft | 426 kts | 309° |
| 2026-05-05 12:59 | 47.56829 | 14.06462 | 31835 ft | 425 kts | 309° |
| 2026-05-05 12:59 | 47.60837 | 14.00029 | 31821 ft | 425 kts | 309° |
| 2026-05-05 13:00 | 47.66850 | 13.90349 | 31814 ft | 426 kts | 309° |
| 2026-05-05 13:01 | 47.74861 | 13.77399 | 31810 ft | 426 kts | 309° |
| 2026-05-05 13:01 | 47.78868 | 13.70898 | 31800 ft | 426 kts | 309° |
| 2026-05-05 13:02 | 47.82880 | 13.64369 | 31843 ft | 432 kts | 309° |
| 2026-05-05 13:02 | 47.86970 | 13.57698 | 32125 ft | 439 kts | 309° |
| 2026-05-05 13:03 | 47.89033 | 13.54330 | 32343 ft | 441 kts | 309° |
| 2026-05-05 13:03 | 47.91097 | 13.50956 | 32648 ft | 441 kts | 309° |
| 2026-05-05 13:03 | 47.93492 | 13.47098 | 33080 ft | 439 kts | 310° |
| 2026-05-05 13:04 | 47.95608 | 13.43836 | 33478 ft | 436 kts | 311° |
| 2026-05-05 13:04 | 47.97730 | 13.40617 | 33802 ft | 435 kts | 311° |
| 2026-05-05 13:04 | 48.02006 | 13.34112 | 33784 ft | 441 kts | 310° |
| 2026-05-05 13:05 | 48.06266 | 13.27572 | 33783 ft | 436 kts | 310° |
| 2026-05-05 13:05 | 48.10468 | 13.21079 | 33789 ft | 434 kts | 310° |
| 2026-05-05 13:06 | 48.14632 | 13.14621 | 33782 ft | 434 kts | 310° |
| 2026-05-05 13:06 | 48.18822 | 13.08110 | 33788 ft | 434 kts | 310° |
| 2026-05-05 13:07 | 48.23015 | 13.01598 | 33785 ft | 435 kts | 311° |
| 2026-05-05 13:07 | 48.27503 | 12.95472 | 33782 ft | 437 kts | 315° |
| 2026-05-05 13:08 | 48.32126 | 12.89515 | 33782 ft | 438 kts | 315° |
| 2026-05-05 13:08 | 48.36742 | 12.83528 | 33783 ft | 438 kts | 315° |
| 2026-05-05 13:09 | 48.41337 | 12.77494 | 33772 ft | 438 kts | 315° |
| 2026-05-05 13:09 | 48.45919 | 12.71433 | 33774 ft | 439 kts | 315° |
| 2026-05-05 13:10 | 48.50496 | 12.65357 | 33769 ft | 438 kts | 314° |
| 2026-05-05 13:10 | 48.55071 | 12.59271 | 33763 ft | 438 kts | 314° |
| 2026-05-05 13:11 | 48.59634 | 12.53187 | 33759 ft | 438 kts | 314° |
| 2026-05-05 13:11 | 48.64193 | 12.47093 | 33770 ft | 437 kts | 314° |
| 2026-05-05 13:12 | 48.68745 | 12.40992 | 33765 ft | 437 kts | 314° |
| 2026-05-05 13:12 | 48.73293 | 12.34882 | 33776 ft | 437 kts | 314° |
| 2026-05-05 13:13 | 48.77846 | 12.28750 | 33764 ft | 438 kts | 314° |
| 2026-05-05 13:13 | 48.82365 | 12.22647 | 33762 ft | 438 kts | 313° |
| 2026-05-05 13:14 | 48.86919 | 12.16483 | 33767 ft | 439 kts | 313° |
| 2026-05-05 13:14 | 48.91478 | 12.10296 | 33763 ft | 440 kts | 313° |
| 2026-05-05 13:15 | 48.96036 | 12.04095 | 33769 ft | 440 kts | 313° |
| 2026-05-05 13:15 | 49.00597 | 11.97873 | 33780 ft | 440 kts | 313° |
| 2026-05-05 13:16 | 49.05157 | 11.91638 | 33778 ft | 441 kts | 313° |
| 2026-05-05 13:16 | 49.09713 | 11.85390 | 33785 ft | 441 kts | 313° |
| 2026-05-05 13:17 | 49.14270 | 11.79127 | 33786 ft | 441 kts | 313° |
| 2026-05-05 13:17 | 49.18817 | 11.72859 | 33788 ft | 440 kts | 313° |
| 2026-05-05 13:18 | 49.23360 | 11.66581 | 33788 ft | 440 kts | 313° |
| 2026-05-05 13:18 | 49.27898 | 11.60296 | 33784 ft | 440 kts | 313° |
| 2026-05-05 13:19 | 49.32430 | 11.54000 | 33771 ft | 440 kts | 313° |
| 2026-05-05 13:19 | 49.36953 | 11.47701 | 33783 ft | 439 kts | 313° |
| 2026-05-05 13:20 | 49.41459 | 11.41409 | 33800 ft | 439 kts | 312° |
| 2026-05-05 13:20 | 49.45981 | 11.35078 | 33799 ft | 440 kts | 312° |
| 2026-05-05 13:21 | 49.50500 | 11.28736 | 33802 ft | 440 kts | 312° |
| 2026-05-05 13:21 | 49.54990 | 11.22435 | 33803 ft | 441 kts | 314° |
| 2026-05-05 13:22 | 49.59871 | 11.16557 | 33809 ft | 444 kts | 318° |
| 2026-05-05 13:22 | 49.64816 | 11.10950 | 33801 ft | 444 kts | 319° |
| 2026-05-05 13:23 | 49.69814 | 11.05234 | 33798 ft | 444 kts | 318° |
| 2026-05-05 13:23 | 49.74753 | 10.99510 | 33797 ft | 444 kts | 318° |
| 2026-05-05 13:24 | 49.79649 | 10.93797 | 33795 ft | 444 kts | 317° |
| 2026-05-05 13:24 | 49.84572 | 10.88033 | 33797 ft | 444 kts | 317° |
| 2026-05-05 13:25 | 49.89492 | 10.82261 | 33799 ft | 444 kts | 317° |
| 2026-05-05 13:25 | 49.94412 | 10.76474 | 33803 ft | 444 kts | 317° |
| 2026-05-05 13:26 | 49.99327 | 10.70677 | 33801 ft | 444 kts | 317° |
| 2026-05-05 13:26 | 50.04244 | 10.64864 | 33801 ft | 444 kts | 317° |
| 2026-05-05 13:27 | 50.09159 | 10.59036 | 33809 ft | 444 kts | 317° |
| 2026-05-05 13:27 | 50.14075 | 10.53193 | 33797 ft | 444 kts | 317° |
| 2026-05-05 13:28 | 50.18988 | 10.47337 | 33822 ft | 444 kts | 317° |
| 2026-05-05 13:28 | 50.23896 | 10.41471 | 33814 ft | 444 kts | 317° |
| 2026-05-05 13:29 | 50.28802 | 10.35593 | 33811 ft | 444 kts | 317° |
| 2026-05-05 13:29 | 50.33696 | 10.29714 | 33818 ft | 443 kts | 316° |
| 2026-05-05 13:30 | 50.38023 | 10.23053 | 33831 ft | 433 kts | 305° |
| 2026-05-05 13:30 | 50.41900 | 10.15851 | 33819 ft | 432 kts | 304° |
| 2026-05-05 13:31 | 50.45764 | 10.08644 | 33824 ft | 432 kts | 304° |
| 2026-05-05 13:31 | 50.49650 | 10.01457 | 33821 ft | 432 kts | 304° |
| 2026-05-05 13:32 | 50.52886 | 9.95490 | 33821 ft | 432 kts | 304° |
| 2026-05-05 13:32 | 50.56778 | 9.88304 | 33824 ft | 431 kts | 304° |
| 2026-05-05 13:33 | 50.60663 | 9.81113 | 33825 ft | 431 kts | 304° |
| 2026-05-05 13:33 | 50.64546 | 9.73902 | 33818 ft | 431 kts | 304° |
| 2026-05-05 13:34 | 50.68422 | 9.66685 | 33831 ft | 431 kts | 304° |
| 2026-05-05 13:34 | 50.72294 | 9.59452 | 33821 ft | 432 kts | 304° |
| 2026-05-05 13:35 | 50.76165 | 9.52203 | 33816 ft | 432 kts | 304° |
| 2026-05-05 13:35 | 50.80028 | 9.44948 | 33829 ft | 432 kts | 304° |
| 2026-05-05 13:36 | 50.83890 | 9.37673 | 33823 ft | 432 kts | 304° |
| 2026-05-05 13:36 | 50.87744 | 9.30395 | 33819 ft | 431 kts | 304° |
| 2026-05-05 13:37 | 50.91594 | 9.23104 | 33829 ft | 431 kts | 303° |
| 2026-05-05 13:37 | 50.95437 | 9.15804 | 33823 ft | 431 kts | 303° |
| 2026-05-05 13:38 | 50.99274 | 9.08494 | 33826 ft | 431 kts | 303° |
| 2026-05-05 13:38 | 51.03107 | 9.01171 | 33822 ft | 432 kts | 303° |
| 2026-05-05 13:39 | 51.06937 | 8.93833 | 33821 ft | 431 kts | 303° |
| 2026-05-05 13:39 | 51.10755 | 8.86500 | 33813 ft | 430 kts | 303° |
| 2026-05-05 13:40 | 51.14527 | 8.79218 | 33820 ft | 428 kts | 302° |
| 2026-05-05 13:40 | 51.18287 | 8.71793 | 33830 ft | 427 kts | 302° |
| 2026-05-05 13:41 | 51.21976 | 8.64464 | 33824 ft | 426 kts | 302° |
| 2026-05-05 13:41 | 51.25686 | 8.57090 | 33841 ft | 426 kts | 302° |
| 2026-05-05 13:42 | 51.29396 | 8.49701 | 33843 ft | 427 kts | 302° |
| 2026-05-05 13:42 | 51.33090 | 8.42281 | 33843 ft | 425 kts | 300° |
| 2026-05-05 13:43 | 51.36525 | 8.34613 | 33848 ft | 424 kts | 298° |
| 2026-05-05 13:43 | 51.39867 | 8.26836 | 33852 ft | 424 kts | 298° |
| 2026-05-05 13:44 | 51.43225 | 8.19045 | 33862 ft | 426 kts | 298° |
| 2026-05-05 13:44 | 51.46605 | 8.11243 | 33854 ft | 426 kts | 298° |
| 2026-05-05 13:45 | 51.49987 | 8.03437 | 33860 ft | 426 kts | 298° |
| 2026-05-05 13:45 | 51.53364 | 7.95626 | 33857 ft | 426 kts | 298° |
| 2026-05-05 13:46 | 51.56732 | 7.87810 | 33859 ft | 425 kts | 298° |
| 2026-05-05 13:46 | 51.60093 | 7.79986 | 33860 ft | 425 kts | 298° |
| 2026-05-05 13:47 | 51.63450 | 7.72148 | 33855 ft | 425 kts | 298° |
| 2026-05-05 13:47 | 51.66795 | 7.64313 | 33868 ft | 424 kts | 298° |
| 2026-05-05 13:48 | 51.70131 | 7.56476 | 33866 ft | 424 kts | 298° |
| 2026-05-05 13:48 | 51.73458 | 7.48635 | 33866 ft | 423 kts | 298° |
| 2026-05-05 13:49 | 51.76753 | 7.40846 | 33876 ft | 423 kts | 298° |
| 2026-05-05 13:49 | 51.80060 | 7.33006 | 33889 ft | 422 kts | 298° |
| 2026-05-05 13:50 | 51.83357 | 7.25167 | 33885 ft | 421 kts | 298° |
| 2026-05-05 13:50 | 51.86637 | 7.17341 | 33887 ft | 420 kts | 299° |
| 2026-05-05 13:51 | 51.89906 | 7.09522 | 33885 ft | 419 kts | 298° |
| 2026-05-05 13:51 | 51.93158 | 7.01718 | 33885 ft | 417 kts | 298° |
| 2026-05-05 13:52 | 51.96392 | 6.93933 | 33888 ft | 416 kts | 298° |
| 2026-05-05 13:52 | 51.99611 | 6.86160 | 33890 ft | 414 kts | 298° |
| 2026-05-05 13:53 | 52.02818 | 6.78392 | 33900 ft | 414 kts | 298° |
| 2026-05-05 13:53 | 52.06025 | 6.70601 | 33889 ft | 415 kts | 298° |
| 2026-05-05 13:54 | 52.07344 | 6.67387 | 33894 ft | 416 kts | 298° |
| 2026-05-05 13:54 | 52.10556 | 6.59550 | 33897 ft | 417 kts | 298° |
| 2026-05-05 13:55 | 52.13773 | 6.51677 | 33905 ft | 419 kts | 298° |
| 2026-05-05 13:55 | 52.16998 | 6.43762 | 33907 ft | 420 kts | 298° |
| 2026-05-05 13:56 | 52.20228 | 6.35807 | 33910 ft | 422 kts | 298° |
| 2026-05-05 13:56 | 52.23466 | 6.27814 | 33911 ft | 423 kts | 297° |
| 2026-05-05 13:57 | 52.26643 | 6.19746 | 33901 ft | 422 kts | 296° |
| 2026-05-05 13:57 | 52.29690 | 6.11562 | 33907 ft | 422 kts | 295° |
| 2026-05-05 13:58 | 52.32720 | 6.03366 | 33897 ft | 421 kts | 295° |
| 2026-05-05 13:58 | 52.35747 | 5.95196 | 33903 ft | 419 kts | 295° |
| 2026-05-05 13:59 | 52.40273 | 5.82981 | 33907 ft | 417 kts | 295° |
| 2026-05-05 14:00 | 52.44265 | 5.72163 | 33917 ft | 416 kts | 295° |
| 2026-05-05 14:00 | 52.47730 | 5.62737 | 33897 ft | 415 kts | 294° |
| 2026-05-05 14:01 | 52.50700 | 5.54628 | 33923 ft | 414 kts | 295° |
| 2026-05-05 14:01 | 52.53662 | 5.46512 | 33912 ft | 414 kts | 295° |
| 2026-05-05 14:02 | 52.56621 | 5.38380 | 33918 ft | 415 kts | 295° |
| 2026-05-05 14:02 | 52.59581 | 5.30219 | 33916 ft | 416 kts | 295° |
| 2026-05-05 14:03 | 52.62539 | 5.22037 | 33925 ft | 417 kts | 295° |
| 2026-05-05 14:03 | 52.65501 | 5.13816 | 33931 ft | 418 kts | 295° |
| 2026-05-05 14:04 | 52.68466 | 5.05564 | 33940 ft | 419 kts | 295° |
| 2026-05-05 14:04 | 52.71431 | 4.97280 | 33951 ft | 420 kts | 295° |
| 2026-05-05 14:05 | 52.74400 | 4.88962 | 33958 ft | 421 kts | 295° |
| 2026-05-05 14:05 | 52.77368 | 4.80616 | 33960 ft | 422 kts | 296° |
| 2026-05-05 14:06 | 52.80333 | 4.72250 | 33967 ft | 422 kts | 296° |
| 2026-05-05 14:06 | 52.83295 | 4.63869 | 33964 ft | 422 kts | 296° |
| 2026-05-05 14:07 | 52.86229 | 4.55535 | 33967 ft | 422 kts | 296° |
| 2026-05-05 14:07 | 52.89175 | 4.47140 | 33962 ft | 421 kts | 296° |
| 2026-05-05 14:08 | 52.92112 | 4.38741 | 33967 ft | 421 kts | 296° |
| 2026-05-05 14:08 | 52.95039 | 4.30344 | 33967 ft | 420 kts | 296° |
| 2026-05-05 14:09 | 52.97955 | 4.21951 | 33964 ft | 420 kts | 296° |
| 2026-05-05 14:09 | 53.00861 | 4.13555 | 33965 ft | 419 kts | 296° |
| 2026-05-05 14:10 | 53.03758 | 4.05159 | 33968 ft | 419 kts | 296° |
| 2026-05-05 14:10 | 53.06647 | 3.96758 | 33970 ft | 419 kts | 296° |
| 2026-05-05 14:11 | 53.09530 | 3.88346 | 33978 ft | 418 kts | 296° |
| 2026-05-05 14:11 | 53.12406 | 3.79924 | 33981 ft | 418 kts | 295° |
| 2026-05-05 14:12 | 53.15276 | 3.71492 | 33981 ft | 418 kts | 295° |
| 2026-05-05 14:12 | 53.18139 | 3.63050 | 33983 ft | 419 kts | 295° |
| 2026-05-05 14:13 | 53.20999 | 3.54591 | 33979 ft | 419 kts | 296° |
| 2026-05-05 14:13 | 53.23853 | 3.46123 | 33983 ft | 419 kts | 296° |
| 2026-05-05 14:14 | 53.26823 | 3.37749 | 33986 ft | 420 kts | 299° |
| 2026-05-05 14:14 | 53.30010 | 3.29561 | 33982 ft | 420 kts | 300° |
| 2026-05-05 14:15 | 53.33210 | 3.21382 | 33984 ft | 420 kts | 300° |
| 2026-05-05 14:15 | 53.36381 | 3.13178 | 33986 ft | 420 kts | 299° |
| 2026-05-05 14:16 | 53.39513 | 3.05001 | 33989 ft | 419 kts | 299° |
| 2026-05-05 14:16 | 53.42651 | 2.96761 | 33991 ft | 419 kts | 299° |
| 2026-05-05 14:17 | 53.45779 | 2.88520 | 33991 ft | 419 kts | 300° |
| 2026-05-05 14:17 | 53.48905 | 2.80259 | 33992 ft | 419 kts | 300° |
| 2026-05-05 14:18 | 53.52022 | 2.71993 | 33991 ft | 419 kts | 300° |
| 2026-05-05 14:18 | 53.55139 | 2.63702 | 33987 ft | 420 kts | 300° |
| 2026-05-05 14:19 | 53.58253 | 2.55388 | 33991 ft | 420 kts | 300° |
| 2026-05-05 14:19 | 53.61367 | 2.47050 | 33993 ft | 421 kts | 300° |
| 2026-05-05 14:20 | 53.64482 | 2.38680 | 33993 ft | 422 kts | 300° |
| 2026-05-05 14:20 | 53.67073 | 2.31697 | 33992 ft | 423 kts | 300° |
| 2026-05-05 14:21 | 53.70193 | 2.23262 | 33994 ft | 424 kts | 301° |
| 2026-05-05 14:21 | 53.73314 | 2.14796 | 33993 ft | 425 kts | 301° |
| 2026-05-05 14:22 | 53.76440 | 2.06286 | 33992 ft | 427 kts | 301° |
| 2026-05-05 14:22 | 53.79569 | 1.97741 | 33995 ft | 428 kts | 301° |
| 2026-05-05 14:23 | 53.82695 | 1.89174 | 33993 ft | 428 kts | 301° |
| 2026-05-05 14:23 | 53.85817 | 1.80588 | 33988 ft | 428 kts | 300° |
| 2026-05-05 14:24 | 53.88934 | 1.71986 | 33991 ft | 428 kts | 300° |
| 2026-05-05 14:24 | 53.92039 | 1.63387 | 33989 ft | 427 kts | 300° |
| 2026-05-05 14:25 | 53.95134 | 1.54789 | 33991 ft | 426 kts | 300° |
| 2026-05-05 14:25 | 53.98213 | 1.46204 | 33989 ft | 425 kts | 300° |
| 2026-05-05 14:26 | 54.01279 | 1.37622 | 33992 ft | 424 kts | 300° |
| 2026-05-05 14:26 | 54.04333 | 1.29048 | 33994 ft | 423 kts | 300° |
| 2026-05-05 14:27 | 54.07369 | 1.20492 | 33996 ft | 422 kts | 300° |
| 2026-05-05 14:27 | 54.10398 | 1.11930 | 33994 ft | 422 kts | 300° |
| 2026-05-05 14:28 | 54.13415 | 1.03370 | 33995 ft | 421 kts | 299° |
| 2026-05-05 14:28 | 54.16421 | 0.94810 | 33994 ft | 420 kts | 299° |
| 2026-05-05 14:29 | 54.19416 | 0.86253 | 33997 ft | 420 kts | 299° |
| 2026-05-05 14:29 | 54.22382 | 0.77750 | 33998 ft | 419 kts | 299° |
| 2026-05-05 14:30 | 54.25357 | 0.69192 | 34002 ft | 419 kts | 299° |
| 2026-05-05 14:30 | 54.28322 | 0.60632 | 34005 ft | 418 kts | 298° |
| 2026-05-05 14:31 | 54.31279 | 0.52066 | 34005 ft | 418 kts | 298° |
| 2026-05-05 14:31 | 54.34226 | 0.43497 | 34002 ft | 417 kts | 298° |
| 2026-05-05 14:32 | 54.37163 | 0.34930 | 34005 ft | 416 kts | 298° |
| 2026-05-05 14:32 | 54.40001 | 0.26624 | 34011 ft | 416 kts | 298° |
| 2026-05-05 14:33 | 54.42917 | 0.18056 | 34011 ft | 415 kts | 298° |
| 2026-05-05 14:33 | 54.45825 | 0.09486 | 34009 ft | 415 kts | 298° |
| 2026-05-05 14:34 | 54.48720 | 0.00922 | 34015 ft | 414 kts | 298° |
| 2026-05-05 14:34 | 54.51603 | -0.07638 | 34016 ft | 413 kts | 298° |
| 2026-05-05 14:35 | 54.54477 | -0.16198 | 34021 ft | 412 kts | 297° |
| 2026-05-05 14:35 | 54.57339 | -0.24755 | 34022 ft | 412 kts | 297° |
| 2026-05-05 14:36 | 54.60188 | -0.33302 | 34023 ft | 411 kts | 297° |
| 2026-05-05 14:36 | 54.63027 | -0.41850 | 34034 ft | 410 kts | 297° |
| 2026-05-05 14:37 | 54.65855 | -0.50392 | 34024 ft | 410 kts | 297° |
| 2026-05-05 14:37 | 54.68674 | -0.58939 | 34025 ft | 409 kts | 297° |
| 2026-05-05 14:38 | 54.71482 | -0.67482 | 34040 ft | 408 kts | 297° |
| 2026-05-05 14:38 | 54.74263 | -0.75973 | 34037 ft | 408 kts | 297° |
| 2026-05-05 14:39 | 54.77056 | -0.84530 | 34036 ft | 408 kts | 296° |
| 2026-05-05 14:39 | 54.79838 | -0.93087 | 34038 ft | 407 kts | 296° |
| 2026-05-05 14:40 | 54.81209 | -0.97308 | 34025 ft | 396 kts | 296° |
| 2026-05-05 14:40 | 54.82543 | -1.01419 | 34023 ft | 388 kts | 296° |
| 2026-05-05 14:40 | 54.85186 | -1.09605 | 34030 ft | 386 kts | 296° |
| 2026-05-05 14:41 | 54.86503 | -1.13697 | 33703 ft | 387 kts | 296° |
| 2026-05-05 14:41 | 54.87804 | -1.17744 | 33386 ft | 382 kts | 296° |
| 2026-05-05 14:41 | 54.89088 | -1.21741 | 33066 ft | 377 kts | 296° |
| 2026-05-05 14:41 | 54.90359 | -1.25704 | 32669 ft | 374 kts | 296° |
| 2026-05-05 14:42 | 54.91599 | -1.29580 | 32325 ft | 370 kts | 296° |
| 2026-05-05 14:42 | 54.92844 | -1.33477 | 31960 ft | 367 kts | 295° |
| 2026-05-05 14:42 | 54.94078 | -1.37347 | 31605 ft | 364 kts | 295° |
| 2026-05-05 14:42 | 54.95301 | -1.41185 | 31257 ft | 362 kts | 295° |
| 2026-05-05 14:43 | 54.96514 | -1.45002 | 30912 ft | 359 kts | 295° |
| 2026-05-05 14:43 | 54.97718 | -1.48795 | 30566 ft | 357 kts | 295° |
| 2026-05-05 14:43 | 54.98912 | -1.52561 | 30228 ft | 354 kts | 295° |
| 2026-05-05 14:43 | 55.00098 | -1.56312 | 29832 ft | 352 kts | 295° |
| 2026-05-05 14:44 | 55.01273 | -1.60030 | 29466 ft | 348 kts | 295° |
| 2026-05-05 14:44 | 55.02434 | -1.63709 | 29096 ft | 345 kts | 295° |
| 2026-05-05 14:44 | 55.03583 | -1.67356 | 28739 ft | 342 kts | 295° |
| 2026-05-05 14:44 | 55.04720 | -1.70971 | 28393 ft | 338 kts | 295° |
| 2026-05-05 14:45 | 55.05844 | -1.74550 | 28029 ft | 335 kts | 295° |
| 2026-05-05 14:45 | 55.06958 | -1.78104 | 27686 ft | 332 kts | 295° |
| 2026-05-05 14:45 | 55.08062 | -1.81631 | 27334 ft | 330 kts | 295° |
| 2026-05-05 14:45 | 55.09157 | -1.85133 | 26981 ft | 327 kts | 295° |
| 2026-05-05 14:46 | 55.10243 | -1.88611 | 26649 ft | 325 kts | 295° |
| 2026-05-05 14:46 | 55.11320 | -1.92066 | 26308 ft | 323 kts | 295° |
| 2026-05-05 14:46 | 55.12392 | -1.95499 | 25949 ft | 321 kts | 296° |
| 2026-05-05 14:46 | 55.13499 | -1.98917 | 25505 ft | 325 kts | 296° |
| 2026-05-05 14:47 | 55.14633 | -2.02350 | 25081 ft | 328 kts | 297° |
| 2026-05-05 14:47 | 55.15785 | -2.05824 | 24629 ft | 332 kts | 297° |
| 2026-05-05 14:47 | 55.16950 | -2.09342 | 24191 ft | 336 kts | 297° |
| 2026-05-05 14:47 | 55.18123 | -2.12897 | 23707 ft | 340 kts | 297° |
| 2026-05-05 14:48 | 55.19306 | -2.16489 | 23173 ft | 341 kts | 297° |
| 2026-05-05 14:48 | 55.20491 | -2.20096 | 22671 ft | 342 kts | 297° |
| 2026-05-05 14:48 | 55.21674 | -2.23706 | 22238 ft | 341 kts | 297° |
| 2026-05-05 14:48 | 55.22851 | -2.27305 | 21746 ft | 341 kts | 297° |
| 2026-05-05 14:49 | 55.24029 | -2.30913 | 21267 ft | 341 kts | 297° |
| 2026-05-05 14:49 | 55.25205 | -2.34522 | 20799 ft | 341 kts | 297° |
| 2026-05-05 14:49 | 55.26379 | -2.38132 | 20336 ft | 341 kts | 298° |
| 2026-05-05 14:49 | 55.27552 | -2.41745 | 19870 ft | 341 kts | 298° |
| 2026-05-05 14:50 | 55.28725 | -2.45362 | 19410 ft | 341 kts | 298° |
| 2026-05-05 14:50 | 55.29895 | -2.48976 | 18961 ft | 341 kts | 298° |
| 2026-05-05 14:50 | 55.31064 | -2.52593 | 18494 ft | 341 kts | 298° |
| 2026-05-05 14:50 | 55.32233 | -2.56214 | 17994 ft | 341 kts | 298° |
| 2026-05-05 14:51 | 55.33399 | -2.59831 | 17490 ft | 340 kts | 298° |
| 2026-05-05 14:51 | 55.34561 | -2.63440 | 17005 ft | 339 kts | 298° |
| 2026-05-05 14:51 | 55.35717 | -2.67036 | 16544 ft | 337 kts | 298° |
| 2026-05-05 14:51 | 55.36867 | -2.70620 | 16083 ft | 336 kts | 298° |
| 2026-05-05 14:52 | 55.38008 | -2.74184 | 15632 ft | 334 kts | 298° |
| 2026-05-05 14:52 | 55.39144 | -2.77734 | 15182 ft | 333 kts | 298° |
| 2026-05-05 14:52 | 55.40276 | -2.81276 | 14727 ft | 331 kts | 298° |
| 2026-05-05 14:52 | 55.41386 | -2.84755 | 14294 ft | 330 kts | 298° |
| 2026-05-05 14:53 | 55.42506 | -2.88269 | 13844 ft | 329 kts | 298° |
| 2026-05-05 14:53 | 55.43620 | -2.91771 | 13355 ft | 327 kts | 298° |
| 2026-05-05 14:53 | 55.44728 | -2.95259 | 12882 ft | 325 kts | 298° |
| 2026-05-05 14:53 | 55.46085 | -2.98422 | 12419 ft | 325 kts | 316° |
| 2026-05-05 14:54 | 55.47944 | -3.00651 | 11995 ft | 326 kts | 334° |
| 2026-05-05 14:54 | 55.50081 | -3.02004 | 11567 ft | 325 kts | 340° |
| 2026-05-05 14:54 | 55.52240 | -3.03171 | 11119 ft | 324 kts | 341° |
| 2026-05-05 14:54 | 55.54370 | -3.04293 | 10656 ft | 314 kts | 340° |
| 2026-05-05 14:55 | 55.56429 | -3.05388 | 10243 ft | 304 kts | 340° |
| 2026-05-05 14:55 | 55.58416 | -3.06463 | 9998 ft | 290 kts | 340° |
| 2026-05-05 14:55 | 55.60273 | -3.07477 | 9987 ft | 270 kts | 340° |
| 2026-05-05 14:55 | 55.62011 | -3.08434 | 9848 ft | 255 kts | 340° |
| 2026-05-05 14:56 | 55.63680 | -3.09362 | 9499 ft | 250 kts | 339° |
| 2026-05-05 14:56 | 55.65329 | -3.10283 | 9128 ft | 247 kts | 340° |
| 2026-05-05 14:56 | 55.66959 | -3.11191 | 8689 ft | 246 kts | 339° |
| 2026-05-05 14:56 | 55.68580 | -3.12095 | 8323 ft | 241 kts | 339° |
| 2026-05-05 14:57 | 55.70184 | -3.12992 | 7794 ft | 244 kts | 340° |
| 2026-05-05 14:57 | 55.71779 | -3.13966 | 7415 ft | 240 kts | 330° |
| 2026-05-05 14:57 | 55.72995 | -3.15902 | 6956 ft | 238 kts | 301° |
| 2026-05-05 14:57 | 55.73457 | -3.18720 | 6610 ft | 242 kts | 274° |
| 2026-05-05 14:58 | 55.73456 | -3.21692 | 6401 ft | 239 kts | 270° |
| 2026-05-05 14:58 | 55.73404 | -3.24658 | 6048 ft | 242 kts | 269° |
| 2026-05-05 14:58 | 55.73343 | -3.27640 | 5755 ft | 242 kts | 269° |
| 2026-05-05 14:58 | 55.73281 | -3.30624 | 5476 ft | 243 kts | 269° |
| 2026-05-05 14:59 | 55.73219 | -3.33621 | 5175 ft | 243 kts | 269° |
| 2026-05-05 14:59 | 55.73159 | -3.36623 | 4882 ft | 244 kts | 269° |
| 2026-05-05 14:59 | 55.73101 | -3.39634 | 4569 ft | 244 kts | 269° |
| 2026-05-05 14:59 | 55.73038 | -3.42654 | 4264 ft | 246 kts | 269° |
| 2026-05-05 15:00 | 55.72991 | -3.45705 | 4015 ft | 246 kts | 275° |
| 2026-05-05 15:00 | 55.73173 | -3.47652 | 3982 ft | 239 kts | 287° |
| 2026-05-05 15:00 | 55.73813 | -3.51394 | 3984 ft | 237 kts | 289° |
| 2026-05-05 15:00 | 55.74304 | -3.54197 | 3974 ft | 244 kts | 289° |
| 2026-05-05 15:01 | 55.74819 | -3.57128 | 3975 ft | 247 kts | 289° |
| 2026-05-05 15:01 | 55.75321 | -3.59985 | 3907 ft | 242 kts | 289° |
| 2026-05-05 15:01 | 55.75817 | -3.62809 | 3729 ft | 239 kts | 289° |
| 2026-05-05 15:01 | 55.76312 | -3.65665 | 3486 ft | 238 kts | 289° |
| 2026-05-05 15:02 | 55.76806 | -3.68403 | 3213 ft | 236 kts | 298° |
| 2026-05-05 15:02 | 55.77816 | -3.70581 | 3011 ft | 221 kts | 335° |
| 2026-05-05 15:02 | 55.79228 | -3.71320 | 2983 ft | 209 kts | 5° |
| 2026-05-05 15:02 | 55.80697 | -3.71074 | 2982 ft | 216 kts | 18° |
| 2026-05-05 15:03 | 55.82169 | -3.70387 | 2985 ft | 223 kts | 19° |
| 2026-05-05 15:03 | 55.83574 | -3.69330 | 2968 ft | 217 kts | 44° |
| 2026-05-05 15:03 | 55.84547 | -3.67341 | 2979 ft | 211 kts | 53° |
| 2026-05-05 15:03 | 55.85437 | -3.65326 | 2968 ft | 203 kts | 55° |
| 2026-05-05 15:04 | 55.86210 | -3.63296 | 2995 ft | 192 kts | 58° |
| 2026-05-05 15:04 | 55.86886 | -3.61326 | 2983 ft | 181 kts | 60° |
| 2026-05-05 15:04 | 55.87518 | -3.59448 | 2886 ft | 174 kts | 60° |
| 2026-05-05 15:04 | 55.88139 | -3.57599 | 2655 ft | 174 kts | 61° |
| 2026-05-05 15:05 | 55.89330 | -3.54056 | 2198 ft | 157 kts | 62° |
| 2026-05-05 15:05 | 55.89870 | -3.52450 | 2003 ft | 144 kts | 61° |
| 2026-05-05 15:05 | 55.90361 | -3.50992 | 1818 ft | 132 kts | 62° |
| 2026-05-05 15:06 | 55.90820 | -3.49629 | 1635 ft | 128 kts | 62° |
| 2026-05-05 15:06 | 55.91275 | -3.48274 | 1472 ft | 127 kts | 61° |
| 2026-05-05 15:06 | 55.91725 | -3.46936 | 1345 ft | 126 kts | 62° |
| 2026-05-05 15:06 | 55.92178 | -3.45583 | 1132 ft | 129 kts | 62° |
| 2026-05-05 15:07 | 55.92641 | -3.44205 | 965 ft | 130 kts | 61° |
| 2026-05-05 15:07 | 55.93125 | -3.42809 | 757 ft | 133 kts | 62° |
| 2026-05-05 15:07 | 55.93603 | -3.41377 | 516 ft | 135 kts | 63° |
| 2026-05-05 15:07 | 55.93923 | -3.40423 | 377 ft | 135 kts | 62° |
| 2026-05-05 15:08 | 55.94407 | -3.39000 | 198 ft | 132 kts | 63° |
| 2026-05-05 15:08 | 55.94864 | -3.37645 | 112 ft | 113 kts | 59° |
| 2026-05-05 15:08 | 55.95160 | -3.36774 | 112 ft | 51 kts | 58° |
| 2026-05-05 15:08 | 55.95257 | -3.36469 | 111 ft | 15 kts | 84° |
| 2026-05-05 15:09 | 55.95165 | -3.36315 | 112 ft | 14 kts | 147° |
| 2026-05-05 15:09 | 55.95125 | -3.36317 | 115 ft | 8 kts | 218° |
| 2026-05-05 15:09 | 55.95089 | -3.36394 | 115 ft | 8 kts | 215° |
| 2026-05-05 15:09 | 55.95039 | -3.36375 | 113 ft | 8 kts | 144° |
| 2026-05-05 15:10 | 55.95022 | -3.36329 | 114 ft | 0 kts | 117° |
| 2026-05-05 15:10 | 55.95020 | -3.36322 | 114 ft | 2 kts | 117° |
| 2026-05-05 15:10 | 55.95005 | -3.36270 | 114 ft | 6 kts | 117° |
| 2026-05-05 15:11 | 55.94997 | -3.36242 | 113 ft | 1 kts | 117° |
| 2026-05-05 15:11 | 55.94996 | -3.36237 | 113 ft | 0 kts | 117° |